MSC Candice — 3ENC5 — position and weather

sailwx.info

Track history (hours):
 
Tides and Currents Weather Stations Pressure Air Temp Water Temp Dewpoint Dewpoint Depression Visibility Wind Speed Wind Dir Waves Ship Positions

MSC Candice

Last reported at 2018-Jun-25 06:01 UTC. Time now 2018-Jun-25 06:15 UTC.
Position N 24°25' E 119°21'.

Length 337 m; draft 9.8 m.

Type: Ship (hazmat cat A). MMSI: 352871000.

Date/timePositionNaut miles runAvg speedWind from/ knotsBaromVisibWave heightAir tempDewpointWater temp
2018-Jun-25 06:01N 24°25' E 119°21'815.1
2018-Jun-25 05:30N 24°20' E 119°14'714.8
2018-Jun-25 05:01N 24°16' E 119°08'714.6
2018-Jun-25 04:30N 24°11' E 119°02'814.3
2018-Jun-25 03:58N 24°06' E 118°55'714.2
2018-Jun-25 03:28N 24°01' E 118°50'714.1
2018-Jun-25 03:00N 23°56' E 118°45'714.2
2018-Jun-25 02:29N 23°52' E 118°38'714.2
2018-Jun-25 02:00N 23°48' E 118°33'713.0
2018-Jun-25 01:31N 23°44' E 118°27'713.3
2018-Jun-25 00:59N 23°40' E 118°21'713.6
2018-Jun-25 00:30N 23°35' E 118°15'713.9
2018-Jun-25 00:00N 23°30' E 118°10'814.3
2018-Jun-24 23:26N 23°24' E 118°05'613.9
2018-Jun-24 22:58N 23°20' E 117°59'714.3
2018-Jun-24 22:30N 23°17' E 117°53'914.6
2018-Jun-24 21:54N 23°10' E 117°47'  
2018-Jun-20 06:45N 01°27' E 104°31'312.6
2018-Jun-20 06:30N 01°25' E 104°29'712.7
2018-Jun-20 05:59N 01°20' E 104°24'713.2
2018-Jun-20 05:26N 01°16' E 104°18'614.1
2018-Jun-20 04:59N 01°15' E 104°12'713.8
2018-Jun-20 04:30N 01°14' E 104°05'814.6
2018-Jun-20 03:59N 01°14' E 103°58'713.2
2018-Jun-20 03:29N 01°11' E 103°52'714.8
2018-Jun-20 03:00N 01°08' E 103°46'917.1
2018-Jun-20 02:30N 01°04' E 103°38'817.0
2018-Jun-20 02:01N 01°07' E 103°30'815.4
2018-Jun-20 01:29N 01°12' E 103°24'612.2
2018-Jun-20 01:00N 01°16' E 103°19'612.7
2018-Jun-20 00:29N 01°20' E 103°14'  
Track history (hours):
 
Tides and Currents Weather Stations Pressure Air Temp Water Temp Dewpoint Dewpoint Depression Visibility Wind Speed Wind Dir Waves Ship Positions

MSC Candice

Last reported at 2018-Jun-25 06:01 UTC. Time now 2018-Jun-25 06:15 UTC.
Position N 24°25' E 119°21'.

Length 337 m; draft 9.8 m.

Type: Ship (hazmat cat A). MMSI: 352871000.

Date/timePositionNaut miles runAvg speedWind from/ knotsBaromVisibWave heightAir tempDewpointWater temp
2018-Jun-25 06:01N 24°25' E 119°21'815.1
2018-Jun-25 05:30N 24°20' E 119°14'714.8
2018-Jun-25 05:01N 24°16' E 119°08'714.6
2018-Jun-25 04:30N 24°11' E 119°02'814.3
2018-Jun-25 03:58N 24°06' E 118°55'714.2
2018-Jun-25 03:28N 24°01' E 118°50'714.1
2018-Jun-25 03:00N 23°56' E 118°45'714.2
2018-Jun-25 02:29N 23°52' E 118°38'714.2
2018-Jun-25 02:00N 23°48' E 118°33'713.0
2018-Jun-25 01:31N 23°44' E 118°27'713.3
2018-Jun-25 00:59N 23°40' E 118°21'713.6
2018-Jun-25 00:30N 23°35' E 118°15'713.9
2018-Jun-25 00:00N 23°30' E 118°10'814.3
2018-Jun-24 23:26N 23°24' E 118°05'613.9
2018-Jun-24 22:58N 23°20' E 117°59'714.3
2018-Jun-24 22:30N 23°17' E 117°53'914.6
2018-Jun-24 21:54N 23°10' E 117°47'  
2018-Jun-20 06:45N 01°27' E 104°31'312.6
2018-Jun-20 06:30N 01°25' E 104°29'712.7
2018-Jun-20 05:59N 01°20' E 104°24'713.2
2018-Jun-20 05:26N 01°16' E 104°18'614.1
2018-Jun-20 04:59N 01°15' E 104°12'713.8
2018-Jun-20 04:30N 01°14' E 104°05'814.6
2018-Jun-20 03:59N 01°14' E 103°58'713.2
2018-Jun-20 03:29N 01°11' E 103°52'714.8
2018-Jun-20 03:00N 01°08' E 103°46'917.1
2018-Jun-20 02:30N 01°04' E 103°38'817.0
2018-Jun-20 02:01N 01°07' E 103°30'815.4
2018-Jun-20 01:29N 01°12' E 103°24'612.2
2018-Jun-20 01:00N 01°16' E 103°19'612.7
2018-Jun-20 00:29N 01°20' E 103°14'  

Dump ship's entire track history